sensor_id;sensor_type;location;lat;lon;timestamp;temperature;humidity
46608;DHT22;32330;51.936;7.184;2022-07-06T00:01:30;14.50;99.90
46608;DHT22;32330;51.936;7.184;2022-07-06T00:03:56;14.50;99.90
46608;DHT22;32330;51.936;7.184;2022-07-06T00:06:22;14.40;99.90
46608;DHT22;32330;51.936;7.184;2022-07-06T00:08:47;14.40;99.90
46608;DHT22;32330;51.936;7.184;2022-07-06T00:11:13;14.40;99.90
46608;DHT22;32330;51.936;7.184;2022-07-06T00:13:38;14.40;99.90
46608;DHT22;32330;51.936;7.184;2022-07-06T00:16:05;14.40;99.90
46608;DHT22;32330;51.936;7.184;2022-07-06T00:18:31;14.30;99.90
46608;DHT22;32330;51.936;7.184;2022-07-06T00:20:57;14.20;99.90
46608;DHT22;32330;51.936;7.184;2022-07-06T00:23:22;14.30;99.90
46608;DHT22;32330;51.936;7.184;2022-07-06T00:25:48;14.20;99.90
46608;DHT22;32330;51.936;7.184;2022-07-06T00:28:14;14.10;99.90
46608;DHT22;32330;51.936;7.184;2022-07-06T00:30:40;14.10;99.90
46608;DHT22;32330;51.936;7.184;2022-07-06T00:33:06;14.10;99.90
46608;DHT22;32330;51.936;7.184;2022-07-06T00:35:32;14.10;99.90
46608;DHT22;32330;51.936;7.184;2022-07-06T00:37:58;14.10;99.90
46608;DHT22;32330;51.936;7.184;2022-07-06T00:40:23;14.10;99.90
46608;DHT22;32330;51.936;7.184;2022-07-06T00:42:49;14.10;99.90
46608;DHT22;32330;51.936;7.184;2022-07-06T00:45:16;14.10;99.90
46608;DHT22;32330;51.936;7.184;2022-07-06T00:47:42;14.10;99.90
46608;DHT22;32330;51.936;7.184;2022-07-06T00:50:10;14.20;99.90
46608;DHT22;32330;51.936;7.184;2022-07-06T00:52:40;14.10;99.90
46608;DHT22;32330;51.936;7.184;2022-07-06T00:55:06;14.20;99.90
46608;DHT22;32330;51.936;7.184;2022-07-06T00:57:31;14.20;99.90
46608;DHT22;32330;51.936;7.184;2022-07-06T00:59:57;14.20;99.90
46608;DHT22;32330;51.936;7.184;2022-07-06T01:02:23;14.20;99.90
46608;DHT22;32330;51.936;7.184;2022-07-06T01:04:49;14.20;99.90
46608;DHT22;32330;51.936;7.184;2022-07-06T01:07:14;14.10;99.90
46608;DHT22;32330;51.936;7.184;2022-07-06T01:09:40;14.10;99.90
46608;DHT22;32330;51.936;7.184;2022-07-06T01:12:06;14.10;99.90
46608;DHT22;32330;51.936;7.184;2022-07-06T01:14:32;14.10;99.90
46608;DHT22;32330;51.936;7.184;2022-07-06T01:16:58;14.10;99.90
46608;DHT22;32330;51.936;7.184;2022-07-06T01:19:23;14.10;99.90
46608;DHT22;32330;51.936;7.184;2022-07-06T01:21:49;14.10;99.90
46608;DHT22;32330;51.936;7.184;2022-07-06T01:24:14;14.00;99.90
46608;DHT22;32330;51.936;7.184;2022-07-06T01:26:40;14.00;99.90
46608;DHT22;32330;51.936;7.184;2022-07-06T01:29:06;14.00;99.90
46608;DHT22;32330;51.936;7.184;2022-07-06T01:31:31;13.90;99.90
46608;DHT22;32330;51.936;7.184;2022-07-06T01:33:57;13.80;99.90
46608;DHT22;32330;51.936;7.184;2022-07-06T01:36:23;13.80;99.90
46608;DHT22;32330;51.936;7.184;2022-07-06T01:38:53;13.80;99.90
46608;DHT22;32330;51.936;7.184;2022-07-06T01:41:20;13.80;99.90
46608;DHT22;32330;51.936;7.184;2022-07-06T01:43:46;13.80;99.90
46608;DHT22;32330;51.936;7.184;2022-07-06T01:46:13;13.80;99.90
46608;DHT22;32330;51.936;7.184;2022-07-06T01:48:39;13.70;99.90
46608;DHT22;32330;51.936;7.184;2022-07-06T01:51:05;13.70;99.90
46608;DHT22;32330;51.936;7.184;2022-07-06T01:53:30;13.70;99.90
46608;DHT22;32330;51.936;7.184;2022-07-06T01:55:56;13.60;99.90
46608;DHT22;32330;51.936;7.184;2022-07-06T01:58:22;13.60;99.90
46608;DHT22;32330;51.936;7.184;2022-07-06T02:00:47;13.60;99.90
46608;DHT22;32330;51.936;7.184;2022-07-06T02:03:13;13.50;99.90
46608;DHT22;32330;51.936;7.184;2022-07-06T02:05:39;13.50;99.90
46608;DHT22;32330;51.936;7.184;2022-07-06T02:08:04;13.50;99.90
46608;DHT22;32330;51.936;7.184;2022-07-06T02:10:30;13.50;99.90
46608;DHT22;32330;51.936;7.184;2022-07-06T02:12:56;13.40;99.90
46608;DHT22;32330;51.936;7.184;2022-07-06T02:15:21;13.40;99.90
46608;DHT22;32330;51.936;7.184;2022-07-06T02:17:47;13.40;99.90
46608;DHT22;32330;51.936;7.184;2022-07-06T02:20:12;13.30;99.90
46608;DHT22;32330;51.936;7.184;2022-07-06T02:22:38;13.30;99.90
46608;DHT22;32330;51.936;7.184;2022-07-06T02:25:04;13.20;99.90
46608;DHT22;32330;51.936;7.184;2022-07-06T02:27:29;13.20;99.90
46608;DHT22;32330;51.936;7.184;2022-07-06T02:29:56;13.20;99.90
46608;DHT22;32330;51.936;7.184;2022-07-06T02:32:21;13.20;1.00
46608;DHT22;32330;51.936;7.184;2022-07-06T02:34:47;13.20;99.90
46608;DHT22;32330;51.936;7.184;2022-07-06T02:37:13;13.20;99.90
46608;DHT22;32330;51.936;7.184;2022-07-06T02:39:38;13.10;1.00
46608;DHT22;32330;51.936;7.184;2022-07-06T02:42:04;13.10;1.00
46608;DHT22;32330;51.936;7.184;2022-07-06T02:44:29;13.00;1.00
46608;DHT22;32330;51.936;7.184;2022-07-06T02:46:55;13.10;1.00
46608;DHT22;32330;51.936;7.184;2022-07-06T02:49:20;13.00;1.00
46608;DHT22;32330;51.936;7.184;2022-07-06T02:51:46;13.00;1.00
46608;DHT22;32330;51.936;7.184;2022-07-06T02:54:11;13.00;1.00
46608;DHT22;32330;51.936;7.184;2022-07-06T02:56:37;13.00;1.00
46608;DHT22;32330;51.936;7.184;2022-07-06T02:59:03;12.90;1.00
46608;DHT22;32330;51.936;7.184;2022-07-06T03:01:28;12.90;1.00
46608;DHT22;32330;51.936;7.184;2022-07-06T03:03:54;12.80;1.00
46608;DHT22;32330;51.936;7.184;2022-07-06T03:06:19;12.80;1.00
46608;DHT22;32330;51.936;7.184;2022-07-06T03:08:45;12.80;1.00
46608;DHT22;32330;51.936;7.184;2022-07-06T03:11:10;12.80;1.00
46608;DHT22;32330;51.936;7.184;2022-07-06T03:13:36;12.80;1.00
46608;DHT22;32330;51.936;7.184;2022-07-06T03:16:01;12.80;1.00
46608;DHT22;32330;51.936;7.184;2022-07-06T03:18:27;12.70;1.00
46608;DHT22;32330;51.936;7.184;2022-07-06T03:20:53;12.80;1.00
46608;DHT22;32330;51.936;7.184;2022-07-06T03:23:18;12.70;1.00
46608;DHT22;32330;51.936;7.184;2022-07-06T03:25:44;12.70;1.00
46608;DHT22;32330;51.936;7.184;2022-07-06T03:28:10;12.70;1.00
46608;DHT22;32330;51.936;7.184;2022-07-06T03:30:36;12.70;1.00
46608;DHT22;32330;51.936;7.184;2022-07-06T03:33:01;12.70;1.00
46608;DHT22;32330;51.936;7.184;2022-07-06T03:35:27;12.70;1.00
46608;DHT22;32330;51.936;7.184;2022-07-06T03:37:53;12.70;1.00
46608;DHT22;32330;51.936;7.184;2022-07-06T03:40:18;12.70;1.00
46608;DHT22;32330;51.936;7.184;2022-07-06T03:42:44;12.70;1.00
46608;DHT22;32330;51.936;7.184;2022-07-06T03:45:10;12.70;1.00
46608;DHT22;32330;51.936;7.184;2022-07-06T03:47:35;12.70;1.00
46608;DHT22;32330;51.936;7.184;2022-07-06T03:50:01;12.80;1.00
46608;DHT22;32330;51.936;7.184;2022-07-06T03:52:26;12.80;1.00
46608;DHT22;32330;51.936;7.184;2022-07-06T03:54:52;12.80;1.00
46608;DHT22;32330;51.936;7.184;2022-07-06T03:57:17;12.80;1.00
46608;DHT22;32330;51.936;7.184;2022-07-06T03:59:43;12.80;1.00
46608;DHT22;32330;51.936;7.184;2022-07-06T04:02:08;12.80;2.20
46608;DHT22;32330;51.936;7.184;2022-07-06T04:04:34;12.80;1.00
46608;DHT22;32330;51.936;7.184;2022-07-06T04:07:00;12.80;1.00
46608;DHT22;32330;51.936;7.184;2022-07-06T04:09:25;12.90;1.00
46608;DHT22;32330;51.936;7.184;2022-07-06T04:11:51;12.90;2.10
46608;DHT22;32330;51.936;7.184;2022-07-06T04:14:17;12.90;1.00
46608;DHT22;32330;51.936;7.184;2022-07-06T04:16:43;13.00;1.30
46608;DHT22;32330;51.936;7.184;2022-07-06T04:19:09;12.90;4.70
46608;DHT22;32330;51.936;7.184;2022-07-06T04:21:34;13.00;6.70
46608;DHT22;32330;51.936;7.184;2022-07-06T04:24:00;13.00;7.50
46608;DHT22;32330;51.936;7.184;2022-07-06T04:26:26;13.00;7.40
46608;DHT22;32330;51.936;7.184;2022-07-06T04:28:51;13.00;1.00
46608;DHT22;32330;51.936;7.184;2022-07-06T04:31:17;13.00;1.00
46608;DHT22;32330;51.936;7.184;2022-07-06T04:33:42;13.00;4.40
46608;DHT22;32330;51.936;7.184;2022-07-06T04:36:09;13.00;8.60
46608;DHT22;32330;51.936;7.184;2022-07-06T04:38:35;13.00;7.10
46608;DHT22;32330;51.936;7.184;2022-07-06T04:41:01;13.10;10.60
46608;DHT22;32330;51.936;7.184;2022-07-06T04:43:26;13.20;7.90
46608;DHT22;32330;51.936;7.184;2022-07-06T04:45:52;13.20;1.00
46608;DHT22;32330;51.936;7.184;2022-07-06T04:48:17;13.20;1.00
46608;DHT22;32330;51.936;7.184;2022-07-06T04:50:43;13.30;1.00
46608;DHT22;32330;51.936;7.184;2022-07-06T04:53:09;13.30;1.00
46608;DHT22;32330;51.936;7.184;2022-07-06T04:55:34;13.40;1.00
46608;DHT22;32330;51.936;7.184;2022-07-06T04:58:00;13.40;1.00
46608;DHT22;32330;51.936;7.184;2022-07-06T05:00:25;13.40;1.00
46608;DHT22;32330;51.936;7.184;2022-07-06T05:02:51;13.50;1.00
46608;DHT22;32330;51.936;7.184;2022-07-06T05:05:16;13.50;1.00
46608;DHT22;32330;51.936;7.184;2022-07-06T05:07:42;13.50;1.00
46608;DHT22;32330;51.936;7.184;2022-07-06T05:10:10;13.70;1.00
46608;DHT22;32330;51.936;7.184;2022-07-06T05:12:36;13.80;1.00
46608;DHT22;32330;51.936;7.184;2022-07-06T05:15:02;13.80;1.00
46608;DHT22;32330;51.936;7.184;2022-07-06T05:17:28;13.80;1.00
46608;DHT22;32330;51.936;7.184;2022-07-06T05:19:53;13.80;1.00
46608;DHT22;32330;51.936;7.184;2022-07-06T05:22:19;13.80;1.00
46608;DHT22;32330;51.936;7.184;2022-07-06T05:24:44;13.90;1.00
46608;DHT22;32330;51.936;7.184;2022-07-06T05:27:10;14.10;1.00
46608;DHT22;32330;51.936;7.184;2022-07-06T05:29:36;14.10;1.00
46608;DHT22;32330;51.936;7.184;2022-07-06T05:32:02;14.10;1.00
46608;DHT22;32330;51.936;7.184;2022-07-06T05:34:27;14.20;1.00
46608;DHT22;32330;51.936;7.184;2022-07-06T05:36:53;14.30;1.00
46608;DHT22;32330;51.936;7.184;2022-07-06T05:39:18;14.30;1.00
46608;DHT22;32330;51.936;7.184;2022-07-06T05:41:46;14.40;1.00
46608;DHT22;32330;51.936;7.184;2022-07-06T05:44:12;14.50;1.00
46608;DHT22;32330;51.936;7.184;2022-07-06T05:46:38;14.60;1.00
46608;DHT22;32330;51.936;7.184;2022-07-06T05:49:03;14.60;1.00
46608;DHT22;32330;51.936;7.184;2022-07-06T05:51:47;14.70;1.00
46608;DHT22;32330;51.936;7.184;2022-07-06T05:54:13;14.90;1.00
46608;DHT22;32330;51.936;7.184;2022-07-06T05:56:38;14.90;99.90
46608;DHT22;32330;51.936;7.184;2022-07-06T05:59:04;15.00;1.00
46608;DHT22;32330;51.936;7.184;2022-07-06T06:01:29;14.90;1.00
46608;DHT22;32330;51.936;7.184;2022-07-06T06:03:55;15.00;99.90
46608;DHT22;32330;51.936;7.184;2022-07-06T06:06:21;15.00;99.90
46608;DHT22;32330;51.936;7.184;2022-07-06T06:08:46;15.00;99.90
46608;DHT22;32330;51.936;7.184;2022-07-06T06:11:12;15.10;99.90
46608;DHT22;32330;51.936;7.184;2022-07-06T06:13:37;15.20;99.90
46608;DHT22;32330;51.936;7.184;2022-07-06T06:16:03;15.10;99.90
46608;DHT22;32330;51.936;7.184;2022-07-06T06:18:29;15.20;99.90
46608;DHT22;32330;51.936;7.184;2022-07-06T06:20:54;15.30;99.90
46608;DHT22;32330;51.936;7.184;2022-07-06T06:23:20;15.40;99.90
46608;DHT22;32330;51.936;7.184;2022-07-06T06:25:45;15.40;99.90
46608;DHT22;32330;51.936;7.184;2022-07-06T06:28:11;15.40;99.90
46608;DHT22;32330;51.936;7.184;2022-07-06T06:30:38;15.50;99.90
46608;DHT22;32330;51.936;7.184;2022-07-06T06:33:09;15.50;99.90
46608;DHT22;32330;51.936;7.184;2022-07-06T06:35:38;15.60;99.90
46608;DHT22;32330;51.936;7.184;2022-07-06T06:38:04;15.50;99.90
46608;DHT22;32330;51.936;7.184;2022-07-06T06:40:29;15.60;99.90
46608;DHT22;32330;51.936;7.184;2022-07-06T06:42:55;15.60;99.90
46608;DHT22;32330;51.936;7.184;2022-07-06T06:45:21;15.70;99.90
46608;DHT22;32330;51.936;7.184;2022-07-06T06:47:46;15.60;99.90
46608;DHT22;32330;51.936;7.184;2022-07-06T06:50:12;15.60;99.90
46608;DHT22;32330;51.936;7.184;2022-07-06T06:52:37;15.80;99.90
46608;DHT22;32330;51.936;7.184;2022-07-06T06:55:03;15.80;99.90
46608;DHT22;32330;51.936;7.184;2022-07-06T06:57:29;15.80;99.90
46608;DHT22;32330;51.936;7.184;2022-07-06T06:59:55;15.80;99.90
46608;DHT22;32330;51.936;7.184;2022-07-06T07:02:20;15.90;99.90
46608;DHT22;32330;51.936;7.184;2022-07-06T07:04:46;16.10;99.90
46608;DHT22;32330;51.936;7.184;2022-07-06T07:07:11;16.10;99.90
46608;DHT22;32330;51.936;7.184;2022-07-06T07:09:37;16.20;99.90
46608;DHT22;32330;51.936;7.184;2022-07-06T07:12:03;16.20;99.90
46608;DHT22;32330;51.936;7.184;2022-07-06T07:14:29;16.10;18.00
46608;DHT22;32330;51.936;7.184;2022-07-06T07:16:54;16.10;3.50
46608;DHT22;32330;51.936;7.184;2022-07-06T07:19:20;16.00;8.10
46608;DHT22;32330;51.936;7.184;2022-07-06T07:21:45;16.00;1.00
46608;DHT22;32330;51.936;7.184;2022-07-06T07:24:11;16.10;1.00
46608;DHT22;32330;51.936;7.184;2022-07-06T07:26:37;16.30;1.00
46608;DHT22;32330;51.936;7.184;2022-07-06T07:29:02;16.30;99.90
46608;DHT22;32330;51.936;7.184;2022-07-06T07:31:28;16.30;99.90
46608;DHT22;32330;51.936;7.184;2022-07-06T07:33:53;16.40;1.60
46608;DHT22;32330;51.936;7.184;2022-07-06T07:36:22;16.50;99.90
46608;DHT22;32330;51.936;7.184;2022-07-06T07:38:49;16.70;99.90
46608;DHT22;32330;51.936;7.184;2022-07-06T07:41:14;16.80;1.00
46608;DHT22;32330;51.936;7.184;2022-07-06T07:43:42;16.90;99.90
46608;DHT22;32330;51.936;7.184;2022-07-06T07:46:07;17.10;99.90
46608;DHT22;32330;51.936;7.184;2022-07-06T07:48:33;17.20;1.00
46608;DHT22;32330;51.936;7.184;2022-07-06T07:50:59;17.20;99.90
46608;DHT22;32330;51.936;7.184;2022-07-06T07:53:24;17.10;99.90
46608;DHT22;32330;51.936;7.184;2022-07-06T07:55:50;17.20;99.90
46608;DHT22;32330;51.936;7.184;2022-07-06T07:58:16;17.10;99.90
46608;DHT22;32330;51.936;7.184;2022-07-06T08:00:41;17.20;99.90
46608;DHT22;32330;51.936;7.184;2022-07-06T08:03:07;17.20;99.90
46608;DHT22;32330;51.936;7.184;2022-07-06T08:05:32;17.10;99.90
46608;DHT22;32330;51.936;7.184;2022-07-06T08:07:58;17.20;99.90
46608;DHT22;32330;51.936;7.184;2022-07-06T08:10:23;17.30;99.90
46608;DHT22;32330;51.936;7.184;2022-07-06T08:12:49;17.40;99.90
46608;DHT22;32330;51.936;7.184;2022-07-06T08:15:15;17.40;1.00
46608;DHT22;32330;51.936;7.184;2022-07-06T08:17:40;17.50;99.90
46608;DHT22;32330;51.936;7.184;2022-07-06T08:20:07;17.60;99.90
46608;DHT22;32330;51.936;7.184;2022-07-06T08:22:35;17.80;99.90
46608;DHT22;32330;51.936;7.184;2022-07-06T08:25:01;17.80;99.90
46608;DHT22;32330;51.936;7.184;2022-07-06T08:27:26;17.90;99.90
46608;DHT22;32330;51.936;7.184;2022-07-06T08:29:52;18.40;99.90
46608;DHT22;32330;51.936;7.184;2022-07-06T08:32:18;18.50;99.90
46608;DHT22;32330;51.936;7.184;2022-07-06T08:34:45;18.70;99.90
46608;DHT22;32330;51.936;7.184;2022-07-06T08:37:11;18.90;99.90
46608;DHT22;32330;51.936;7.184;2022-07-06T08:39:36;19.20;99.90
46608;DHT22;32330;51.936;7.184;2022-07-06T08:42:02;19.20;84.60
46608;DHT22;32330;51.936;7.184;2022-07-06T08:44:29;19.60;1.00
46608;DHT22;32330;51.936;7.184;2022-07-06T08:46:58;19.80;99.90
46608;DHT22;32330;51.936;7.184;2022-07-06T08:49:26;20.00;99.90
46608;DHT22;32330;51.936;7.184;2022-07-06T08:51:52;19.70;99.90
46608;DHT22;32330;51.936;7.184;2022-07-06T08:54:18;20.00;82.80
46608;DHT22;32330;51.936;7.184;2022-07-06T08:56:46;20.60;1.00
46608;DHT22;32330;51.936;7.184;2022-07-06T08:59:12;20.40;99.90
46608;DHT22;32330;51.936;7.184;2022-07-06T09:01:38;20.10;99.90
46608;DHT22;32330;51.936;7.184;2022-07-06T09:04:06;20.20;99.90
46608;DHT22;32330;51.936;7.184;2022-07-06T09:06:33;20.10;99.90
46608;DHT22;32330;51.936;7.184;2022-07-06T09:09:00;19.90;99.90
46608;DHT22;32330;51.936;7.184;2022-07-06T09:11:26;19.90;99.90
46608;DHT22;32330;51.936;7.184;2022-07-06T09:13:52;19.70;99.90
46608;DHT22;32330;51.936;7.184;2022-07-06T09:16:25;19.60;99.90
46608;DHT22;32330;51.936;7.184;2022-07-06T09:18:51;19.70;99.90
46608;DHT22;32330;51.936;7.184;2022-07-06T09:21:31;19.80;99.90
46608;DHT22;32330;51.936;7.184;2022-07-06T09:23:59;19.80;96.60
46608;DHT22;32330;51.936;7.184;2022-07-06T09:26:26;19.60;91.20
46608;DHT22;32330;51.936;7.184;2022-07-06T09:28:55;19.70;94.50
46608;DHT22;32330;51.936;7.184;2022-07-06T09:31:21;20.00;92.10
46608;DHT22;32330;51.936;7.184;2022-07-06T09:34:03;20.20;85.70
46608;DHT22;32330;51.936;7.184;2022-07-06T09:36:43;19.90;54.30
46608;DHT22;32330;51.936;7.184;2022-07-06T09:41:44;20.30;53.90
46608;DHT22;32330;51.936;7.184;2022-07-06T09:44:10;20.00;24.90
46608;DHT22;32330;51.936;7.184;2022-07-06T09:46:45;20.00;28.60
46608;DHT22;32330;51.936;7.184;2022-07-06T09:49:11;20.10;20.30
46608;DHT22;32330;51.936;7.184;2022-07-06T09:51:37;20.20;1.00
46608;DHT22;32330;51.936;7.184;2022-07-06T09:54:09;20.60;1.00
46608;DHT22;32330;51.936;7.184;2022-07-06T09:56:37;20.90;1.00
46608;DHT22;32330;51.936;7.184;2022-07-06T09:59:13;20.90;1.00
46608;DHT22;32330;51.936;7.184;2022-07-06T10:01:40;20.50;1.00
46608;DHT22;32330;51.936;7.184;2022-07-06T10:04:07;20.70;1.00
46608;DHT22;32330;51.936;7.184;2022-07-06T10:06:33;20.70;1.00
46608;DHT22;32330;51.936;7.184;2022-07-06T10:08:59;20.70;1.00
46608;DHT22;32330;51.936;7.184;2022-07-06T10:11:26;20.90;1.00
46608;DHT22;32330;51.936;7.184;2022-07-06T10:13:55;21.00;99.90
46608;DHT22;32330;51.936;7.184;2022-07-06T10:16:23;20.60;99.90
46608;DHT22;32330;51.936;7.184;2022-07-06T10:18:50;20.90;99.90
46608;DHT22;32330;51.936;7.184;2022-07-06T10:21:17;21.10;99.90
46608;DHT22;32330;51.936;7.184;2022-07-06T10:23:43;21.70;99.90
46608;DHT22;32330;51.936;7.184;2022-07-06T10:26:09;22.10;99.90
46608;DHT22;32330;51.936;7.184;2022-07-06T10:28:35;21.30;99.90
46608;DHT22;32330;51.936;7.184;2022-07-06T10:31:02;21.10;99.90
46608;DHT22;32330;51.936;7.184;2022-07-06T10:33:27;20.90;99.90
46608;DHT22;32330;51.936;7.184;2022-07-06T10:35:54;20.80;99.90
46608;DHT22;32330;51.936;7.184;2022-07-06T10:38:33;21.00;99.90
46608;DHT22;32330;51.936;7.184;2022-07-06T10:41:07;21.60;99.90
46608;DHT22;32330;51.936;7.184;2022-07-06T10:43:43;22.10;99.90
46608;DHT22;32330;51.936;7.184;2022-07-06T10:48:48;21.70;99.90
46608;DHT22;32330;51.936;7.184;2022-07-06T10:51:25;21.90;99.90
46608;DHT22;32330;51.936;7.184;2022-07-06T10:54:04;21.70;99.90
46608;DHT22;32330;51.936;7.184;2022-07-06T10:56:36;22.20;99.90
46608;DHT22;32330;51.936;7.184;2022-07-06T11:01:37;22.60;99.90
46608;DHT22;32330;51.936;7.184;2022-07-06T11:06:32;22.30;99.90
46608;DHT22;32330;51.936;7.184;2022-07-06T11:09:05;22.30;99.90
46608;DHT22;32330;51.936;7.184;2022-07-06T11:16:30;22.20;99.90
46608;DHT22;32330;51.936;7.184;2022-07-06T11:21:40;22.50;99.90
46608;DHT22;32330;51.936;7.184;2022-07-06T11:24:09;22.20;99.90
46608;DHT22;32330;51.936;7.184;2022-07-06T11:26:35;22.10;99.90
46608;DHT22;32330;51.936;7.184;2022-07-06T11:29:04;22.00;99.90
46608;DHT22;32330;51.936;7.184;2022-07-06T11:31:34;22.80;99.90
46608;DHT22;32330;51.936;7.184;2022-07-06T11:34:00;23.40;99.90
46608;DHT22;32330;51.936;7.184;2022-07-06T11:36:26;23.50;99.90
46608;DHT22;32330;51.936;7.184;2022-07-06T11:38:51;23.30;99.90
46608;DHT22;32330;51.936;7.184;2022-07-06T11:41:17;23.10;99.90
46608;DHT22;32330;51.936;7.184;2022-07-06T11:43:44;22.70;99.90
46608;DHT22;32330;51.936;7.184;2022-07-06T11:46:25;22.60;99.90
46608;DHT22;32330;51.936;7.184;2022-07-06T11:48:59;22.70;99.90
46608;DHT22;32330;51.936;7.184;2022-07-06T11:51:27;22.10;99.90
46608;DHT22;32330;51.936;7.184;2022-07-06T11:53:56;22.30;99.90
46608;DHT22;32330;51.936;7.184;2022-07-06T11:56:23;22.30;99.90
46608;DHT22;32330;51.936;7.184;2022-07-06T11:58:58;22.10;99.90
46608;DHT22;32330;51.936;7.184;2022-07-06T12:01:26;22.00;99.90
46608;DHT22;32330;51.936;7.184;2022-07-06T12:03:55;21.90;99.90
46608;DHT22;32330;51.936;7.184;2022-07-06T12:06:23;22.40;99.90
46608;DHT22;32330;51.936;7.184;2022-07-06T12:08:51;22.50;99.90
46608;DHT22;32330;51.936;7.184;2022-07-06T12:11:20;23.00;99.90
46608;DHT22;32330;51.936;7.184;2022-07-06T12:13:46;23.10;99.90
46608;DHT22;32330;51.936;7.184;2022-07-06T12:16:13;23.30;99.90
46608;DHT22;32330;51.936;7.184;2022-07-06T12:18:39;23.50;99.90
46608;DHT22;32330;51.936;7.184;2022-07-06T12:21:15;23.10;99.90
46608;DHT22;32330;51.936;7.184;2022-07-06T12:23:44;23.00;99.90
46608;DHT22;32330;51.936;7.184;2022-07-06T12:26:11;23.20;99.90
46608;DHT22;32330;51.936;7.184;2022-07-06T12:28:37;23.60;99.90
46608;DHT22;32330;51.936;7.184;2022-07-06T12:31:03;23.70;99.90
46608;DHT22;32330;51.936;7.184;2022-07-06T12:33:29;23.40;99.90
46608;DHT22;32330;51.936;7.184;2022-07-06T12:35:55;23.20;99.90
46608;DHT22;32330;51.936;7.184;2022-07-06T12:38:27;23.30;99.90
46608;DHT22;32330;51.936;7.184;2022-07-06T12:40:55;23.30;99.90
46608;DHT22;32330;51.936;7.184;2022-07-06T12:43:40;23.00;99.90
46608;DHT22;32330;51.936;7.184;2022-07-06T12:46:35;23.00;99.90
46608;DHT22;32330;51.936;7.184;2022-07-06T12:49:03;23.30;99.90
46608;DHT22;32330;51.936;7.184;2022-07-06T12:51:29;23.30;99.90
46608;DHT22;32330;51.936;7.184;2022-07-06T12:54:14;23.40;99.90
46608;DHT22;32330;51.936;7.184;2022-07-06T12:57:08;23.20;99.90
46608;DHT22;32330;51.936;7.184;2022-07-06T12:59:37;23.40;99.90
46608;DHT22;32330;51.936;7.184;2022-07-06T13:02:05;23.70;99.90
46608;DHT22;32330;51.936;7.184;2022-07-06T13:04:31;24.00;99.90
46608;DHT22;32330;51.936;7.184;2022-07-06T13:06:58;24.10;99.90
46608;DHT22;32330;51.936;7.184;2022-07-06T13:09:24;24.40;99.90
46608;DHT22;32330;51.936;7.184;2022-07-06T13:11:50;24.50;99.90
46608;DHT22;32330;51.936;7.184;2022-07-06T13:14:16;24.40;99.90
46608;DHT22;32330;51.936;7.184;2022-07-06T13:16:44;24.50;1.00
46608;DHT22;32330;51.936;7.184;2022-07-06T13:19:10;24.50;1.00
46608;DHT22;32330;51.936;7.184;2022-07-06T13:21:35;24.90;21.10
46608;DHT22;32330;51.936;7.184;2022-07-06T13:24:02;25.10;99.90
46608;DHT22;32330;51.936;7.184;2022-07-06T13:26:28;25.20;99.90
46608;DHT22;32330;51.936;7.184;2022-07-06T13:28:53;24.60;1.00
46608;DHT22;32330;51.936;7.184;2022-07-06T13:31:19;24.60;92.60
46608;DHT22;32330;51.936;7.184;2022-07-06T13:33:44;24.90;99.90
46608;DHT22;32330;51.936;7.184;2022-07-06T13:36:10;24.90;99.90
46608;DHT22;32330;51.936;7.184;2022-07-06T13:38:35;24.40;99.90
46608;DHT22;32330;51.936;7.184;2022-07-06T13:41:01;24.10;1.00
46608;DHT22;32330;51.936;7.184;2022-07-06T13:43:27;24.40;99.90
46608;DHT22;32330;51.936;7.184;2022-07-06T13:46:04;24.40;99.90
46608;DHT22;32330;51.936;7.184;2022-07-06T13:48:31;24.30;99.90
46608;DHT22;32330;51.936;7.184;2022-07-06T13:50:56;24.30;99.90
46608;DHT22;32330;51.936;7.184;2022-07-06T13:53:22;24.60;1.00
46608;DHT22;32330;51.936;7.184;2022-07-06T13:55:47;24.60;91.10
46608;DHT22;32330;51.936;7.184;2022-07-06T13:58:13;24.60;6.50
46608;DHT22;32330;51.936;7.184;2022-07-06T14:00:39;24.50;99.90
46608;DHT22;32330;51.936;7.184;2022-07-06T14:03:05;24.50;99.90
46608;DHT22;32330;51.936;7.184;2022-07-06T14:05:30;24.80;99.90
46608;DHT22;32330;51.936;7.184;2022-07-06T14:07:56;24.70;99.90
46608;DHT22;32330;51.936;7.184;2022-07-06T14:10:22;24.40;1.00
46608;DHT22;32330;51.936;7.184;2022-07-06T14:12:48;24.50;99.90
46608;DHT22;32330;51.936;7.184;2022-07-06T14:15:14;24.00;1.00
46608;DHT22;32330;51.936;7.184;2022-07-06T14:17:39;23.50;99.90
46608;DHT22;32330;51.936;7.184;2022-07-06T14:20:05;23.60;99.90
46608;DHT22;32330;51.936;7.184;2022-07-06T14:22:31;23.80;29.00
46608;DHT22;32330;51.936;7.184;2022-07-06T14:24:58;24.00;1.00
46608;DHT22;32330;51.936;7.184;2022-07-06T14:27:23;23.70;1.00
46608;DHT22;32330;51.936;7.184;2022-07-06T14:29:49;23.30;17.60
46608;DHT22;32330;51.936;7.184;2022-07-06T14:32:14;23.40;99.90
46608;DHT22;32330;51.936;7.184;2022-07-06T14:34:40;23.70;99.90
46608;DHT22;32330;51.936;7.184;2022-07-06T14:37:06;23.80;99.90
46608;DHT22;32330;51.936;7.184;2022-07-06T14:39:31;23.80;99.90
46608;DHT22;32330;51.936;7.184;2022-07-06T14:41:57;23.50;99.90
46608;DHT22;32330;51.936;7.184;2022-07-06T14:44:23;23.40;99.90
46608;DHT22;32330;51.936;7.184;2022-07-06T14:46:49;23.50;99.90
46608;DHT22;32330;51.936;7.184;2022-07-06T14:49:14;23.90;99.90
46608;DHT22;32330;51.936;7.184;2022-07-06T14:51:40;23.60;99.90
46608;DHT22;32330;51.936;7.184;2022-07-06T14:54:06;23.20;99.90
46608;DHT22;32330;51.936;7.184;2022-07-06T14:56:31;23.50;97.50
46608;DHT22;32330;51.936;7.184;2022-07-06T14:58:57;24.10;99.90
46608;DHT22;32330;51.936;7.184;2022-07-06T15:01:22;23.70;99.90
46608;DHT22;32330;51.936;7.184;2022-07-06T15:03:48;24.20;99.90
46608;DHT22;32330;51.936;7.184;2022-07-06T15:06:14;24.70;99.90
46608;DHT22;32330;51.936;7.184;2022-07-06T15:08:39;24.90;99.90
46608;DHT22;32330;51.936;7.184;2022-07-06T15:11:05;25.20;99.90
46608;DHT22;32330;51.936;7.184;2022-07-06T15:13:31;25.00;99.90
46608;DHT22;32330;51.936;7.184;2022-07-06T15:15:56;24.10;99.90
46608;DHT22;32330;51.936;7.184;2022-07-06T15:18:22;23.90;99.90
46608;DHT22;32330;51.936;7.184;2022-07-06T15:20:47;24.10;99.90
46608;DHT22;32330;51.936;7.184;2022-07-06T15:23:13;24.60;99.90
46608;DHT22;32330;51.936;7.184;2022-07-06T15:25:39;24.80;99.90
46608;DHT22;32330;51.936;7.184;2022-07-06T15:28:04;24.60;99.90
46608;DHT22;32330;51.936;7.184;2022-07-06T15:30:30;24.50;99.90
46608;DHT22;32330;51.936;7.184;2022-07-06T15:32:58;24.50;99.90
46608;DHT22;32330;51.936;7.184;2022-07-06T15:35:24;24.00;99.90
46608;DHT22;32330;51.936;7.184;2022-07-06T15:37:49;23.90;99.90
46608;DHT22;32330;51.936;7.184;2022-07-06T15:40:15;23.60;99.90
46608;DHT22;32330;51.936;7.184;2022-07-06T15:42:46;23.60;99.90
46608;DHT22;32330;51.936;7.184;2022-07-06T15:45:12;23.60;99.90
46608;DHT22;32330;51.936;7.184;2022-07-06T15:47:39;23.60;99.90
46608;DHT22;32330;51.936;7.184;2022-07-06T15:50:05;23.80;99.90